Tacoma, WA

12:21 AM PDT on May 23, 2017 (GMT -0700)
McChord Air Force Base

Weather History for KTCM - October, 2011

Change the Weather History Date:

Monday, October 17, 2011

  Actual Average Record
Temperature  
Mean Temperature 45 °F -  
Max Temperature 59 °F 58 °F 73 °F (2002)
Min Temperature 32 °F 39 °F 31 °F (2010)
Degree Days  
Heating Degree Days 20    
Moisture  
Dew Point 39 °F    
Average Humidity 86    
Maximum Humidity 100    
Minimum Humidity 60    
Precipitation  
Precipitation 0.00 in - - ()
Sea Level Pressure  
Sea Level Pressure 30.40 in    
Wind  
Wind Speed 4 mph (NE)    
Max Wind Speed 10 mph    
Max Gust Speed -    
Visibility 6 miles    
Events Fog    
Averages and records for this station are not official NWS values.
T = Trace of Precipitation, MM = Missing Value Source: NWS Daily Summary

Daily Weather History Graph

Daily Weather History Graph

Search for Another Location

Airport or City:

Trip Planner

Search our weather history database for the weather conditions in past years. The results will help you decide how hot, cold, wet, or windy it might be!

Date:

Astronomy

Oct. 17, 2011 Rise Set
Actual Time 7:30 AM PDT 6:19 PM PDT
Civil Twilight 6:59 AM PDT 6:49 PM PDT
Nautical Twilight 6:24 AM PDT 7:25 PM PDT
Astronomical Twilight 5:49 AM PDT 8:00 PM PDT
Moon 9:49 PM PDT (10/17) 12:57 PM PDT (10/17)
Length of Visible Light 11h 49m
Length of Day
10h 48m
Waning Gibbous, 73% of the Moon is Illuminated
Oct 17
Waning Gibbous
Oct 19
Last Quarter
Oct 26
New
Nov 2
First Quarter
Nov 10
Full

Hourly Weather History & Observations

Time (PDT) Temp. Windchill Dew Point Humidity Pressure Visibility Wind Dir Wind Speed Gust Speed Precip Events Conditions
12:03 AM 35.6 °F - 35.6 °F 100% 30.34 in 1.2 mi North - - N/A   Partly Cloudy
12:08 AM 35.6 °F - 35.6 °F 100% 30.34 in 4.0 mi North - - N/A   Scattered Clouds
12:13 AM 35.6 °F - 35.6 °F 100% 30.34 in 6.0 mi North - - N/A   Mostly Cloudy
12:58 AM 37.0 °F - 36.9 °F 99% 30.39 in 6.0 mi North - - N/A   Mostly Cloudy
1:08 AM 37.4 °F - 37.4 °F 100% 30.35 in 6.0 mi North - - N/A   Scattered Clouds
1:33 AM 35.6 °F - 35.6 °F 100% 30.35 in 2.0 mi North - - N/A   Clear
1:38 AM 35.6 °F - 35.6 °F 100% 30.34 in 1.2 mi North - - N/A   Clear
1:43 AM 35.6 °F - 35.6 °F 100% 30.34 in 1.0 mi North - - N/A   Clear
1:48 AM 35.6 °F - 35.6 °F 100% 30.35 in 1.0 mi North - - N/A   Clear
1:53 AM 35.6 °F - 35.6 °F 100% 30.35 in 0.8 mi North - - N/A   Clear
1:58 AM 35.8 °F - 35.4 °F 99% 30.40 in 0.8 mi North - - N/A   Clear
2:03 AM 35.6 °F - 35.6 °F 100% 30.35 in 0.5 mi North - - N/A Fog Fog
2:08 AM 35.6 °F - 35.6 °F 100% 30.36 in 0.8 mi North - - N/A   Clear
2:13 AM 35.6 °F - 35.6 °F 100% 30.36 in 2.5 mi North - - N/A   Clear
2:23 AM 35.6 °F - 35.6 °F 100% 30.37 in 2.0 mi North - - N/A   Clear
2:28 AM 35.6 °F - 35.6 °F 100% 30.37 in 1.2 mi ESE 1.2 mph - N/A   Clear
2:33 AM 35.6 °F 32.8 °F 35.6 °F 100% 30.37 in 1.2 mi South 3.5 mph - N/A   Clear
2:38 AM 35.6 °F 32.8 °F 33.8 °F 93% 30.37 in 2.5 mi South 3.5 mph - N/A   Clear
2:43 AM 35.6 °F 32.8 °F 33.8 °F 93% 30.38 in 5.0 mi SSW 3.5 mph - N/A   Clear
2:58 AM 34.9 °F 32.0 °F 34.7 °F 99% 30.43 in 5.0 mi South 3.5 mph - N/A   Clear
3:38 AM 35.6 °F - 33.8 °F 93% 30.39 in 2.0 mi North - - N/A   Clear
3:43 AM 33.8 °F - 33.8 °F 100% 30.40 in 1.2 mi North - - N/A   Clear
3:48 AM 33.8 °F - 33.8 °F 100% 30.39 in 1.5 mi North - - N/A   Clear
3:53 AM 35.6 °F - 35.6 °F 100% 30.40 in 3.0 mi North - - N/A   Clear
3:58 AM 34.9 °F - 34.7 °F 99% 30.45 in 3.0 mi North - - N/A   Clear
4:13 AM 32.0 °F - 32.0 °F 100% 30.39 in 2.0 mi SE 1.2 mph - N/A   Clear
4:18 AM 32.0 °F - 32.0 °F 100% 30.39 in 1.2 mi North - - N/A   Clear
4:28 AM 32.0 °F - 32.0 °F 100% 30.39 in 2.5 mi North - - N/A   Clear
4:33 AM 32.0 °F - 32.0 °F 100% 30.40 in 3.0 mi North - - N/A   Clear
4:43 AM 33.8 °F - 32.0 °F 93% 30.40 in 4.0 mi North - - N/A   Partly Cloudy
4:58 AM 34.7 °F - 34.5 °F 99% 30.46 in 10.0 mi Calm Calm - N/A   Partly Cloudy
5:59 AM 34.7 °F - 34.5 °F 99% 30.47 in 7.0 mi East 1.2 mph - N/A   Overcast
6:09 AM 35.6 °F 32.8 °F 35.6 °F 100% 30.42 in 9.0 mi ESE 3.5 mph - N/A   Overcast
6:14 AM 35.6 °F 32.8 °F 35.6 °F 100% 30.42 in 9.0 mi SE 3.5 mph - N/A   Overcast
6:58 AM 37.4 °F - 37.0 °F 99% 30.47 in 10.0 mi East 2.3 mph - N/A   Overcast
7:08 AM 37.4 °F - 37.4 °F 100% 30.42 in 2.5 mi ESE 2.3 mph - N/A   Overcast
7:13 AM 37.4 °F - 37.4 °F 100% 30.42 in 1.2 mi Calm Calm - N/A   Overcast
7:18 AM 37.4 °F - 37.4 °F 100% 30.41 in 1.0 mi ESE 2.3 mph - N/A   Overcast
7:28 AM 37.4 °F 34.9 °F 37.4 °F 100% 30.41 in 1.0 mi SE 3.5 mph - N/A   Overcast
7:33 AM 37.4 °F - 37.4 °F 100% 30.42 in 1.2 mi SSE 2.3 mph - N/A   Overcast
7:38 AM 37.4 °F - 37.4 °F 100% 30.42 in 0.8 mi SSE 2.3 mph - N/A   Overcast
7:43 AM 37.4 °F - 37.4 °F 100% 30.41 in 0.5 mi ESE 2.3 mph - N/A Fog Fog
7:48 AM 37.4 °F - 37.4 °F 100% 30.42 in 0.8 mi Calm Calm - N/A   Overcast
7:53 AM 37.4 °F - 37.4 °F 100% 30.42 in 2.0 mi East 1.2 mph - N/A   Overcast
7:58 AM 37.4 °F - 37.4 °F 100% 30.47 in 3.0 mi East 1.2 mph - N/A   Mostly Cloudy
8:08 AM 37.4 °F - 37.4 °F 100% 30.42 in 5.0 mi Calm Calm - N/A   Scattered Clouds
8:58 AM 40.5 °F - 40.3 °F 99% 30.48 in 10.0 mi East 2.3 mph - N/A   Clear
9:58 AM 46.6 °F - 42.4 °F 85% 30.44 in 10.0 mi Calm Calm - N/A   Clear
10:58 AM 50.7 °F - 43.5 °F 76% 30.43 in 10.0 mi Calm Calm - N/A   Clear
11:39 AM 53.6 °F - 44.6 °F 72% 30.42 in 10.0 mi Variable 4.6 mph - N/A   Clear
11:44 AM 53.6 °F - 44.6 °F 72% 30.42 in 10.0 mi NNW 6.9 mph - N/A   Clear
11:49 AM 55.4 °F - 44.6 °F 67% 30.42 in 10.0 mi NNW 5.8 mph - N/A   Clear
11:54 AM 55.4 °F - 44.6 °F 67% 30.42 in 10.0 mi NNW 9.2 mph - N/A   Clear
11:59 AM 55.4 °F - 44.6 °F 67% 30.42 in 10.0 mi Variable 5.8 mph - N/A   Clear
12:04 PM 55.4 °F - 44.6 °F 67% 30.42 in 10.0 mi North 9.2 mph - N/A   Clear
12:09 PM 55.4 °F - 44.6 °F 67% 30.42 in 10.0 mi North 5.8 mph - N/A   Clear
12:14 PM 55.4 °F - 44.6 °F 67% 30.42 in 10.0 mi NNE 8.1 mph - N/A   Clear
12:19 PM 55.4 °F - 44.6 °F 67% 30.42 in 10.0 mi North 8.1 mph - N/A   Clear
12:24 PM 55.4 °F - 44.6 °F 67% 30.42 in 10.0 mi North 5.8 mph - N/A   Clear
12:29 PM 55.4 °F - 44.6 °F 67% 30.41 in 10.0 mi NNE 8.1 mph - N/A   Clear
12:34 PM 55.4 °F - 44.6 °F 67% 30.41 in 10.0 mi North 9.2 mph - N/A   Clear
12:39 PM 55.4 °F - 44.6 °F 67% 30.41 in 10.0 mi NE 8.1 mph - N/A   Clear
12:44 PM 55.4 °F - 44.6 °F 67% 30.41 in 10.0 mi Variable 5.8 mph - N/A   Clear
12:54 PM 57.2 °F - 44.6 °F 63% 30.41 in 10.0 mi North 8.1 mph - N/A   Clear
12:58 PM 56.5 °F - 44.2 °F 64% 30.42 in 10.0 mi North 9.2 mph - N/A   Clear
12:59 PM 57.2 °F - 44.6 °F 63% 30.40 in 10.0 mi NNE 8.1 mph - N/A   Clear
1:04 PM 57.2 °F - 44.6 °F 63% 30.40 in 10.0 mi Variable 6.9 mph - N/A   Clear
1:09 PM 57.2 °F - 44.6 °F 63% 30.40 in 10.0 mi NNE 8.1 mph - N/A   Clear
1:14 PM 57.2 °F - 44.6 °F 63% 30.40 in 10.0 mi NNE 8.1 mph - N/A   Clear
1:19 PM 57.2 °F - 44.6 °F 63% 30.39 in 10.0 mi NE 6.9 mph - N/A   Clear
1:24 PM 57.2 °F - 44.6 °F 63% 30.39 in 10.0 mi NNE 9.2 mph - N/A   Clear
1:29 PM 57.2 °F - 44.6 °F 63% 30.39 in 10.0 mi NNE 6.9 mph - N/A   Clear
1:58 PM 58.1 °F - 45.9 °F 64% 30.40 in 10.0 mi North 8.1 mph - N/A   Clear
2:58 PM 58.8 °F - 45.7 °F 62% 30.38 in 10.0 mi NNE 10.4 mph - N/A   Clear
3:58 PM 58.6 °F - 45.9 °F 63% 30.38 in 10.0 mi NNE 6.9 mph - N/A   Clear
4:58 PM 58.5 °F - 44.4 °F 60% 30.39 in 10.0 mi North 9.2 mph - N/A   Clear
5:58 PM 56.5 °F - 43.7 °F 62% 30.37 in 10.0 mi NNE 6.9 mph - N/A   Clear
6:58 PM 52.3 °F - 43.0 °F 70% 30.38 in 10.0 mi North 5.8 mph - N/A   Clear
7:58 PM 52.0 °F - 43.7 °F 73% 30.38 in 10.0 mi North 8.1 mph - N/A   Clear
8:58 PM 50.2 °F - 44.1 °F 79% 30.38 in 10.0 mi NNE 4.6 mph - N/A   Clear
9:58 PM 43.9 °F - 42.1 °F 93% 30.38 in 10.0 mi NNE 2.3 mph - N/A   Clear
10:58 PM 41.7 °F 39.8 °F 40.8 °F 97% 30.32 in 10.0 mi SE 3.5 mph - N/A   Clear
11:58 PM 42.4 °F - 41.2 °F 95% 30.31 in 10.0 mi North 2.3 mph - N/A   Clear